Time;durP1;ratioP1;P1;durP2;ratioP2;P2;SDS_P1;SDS_P2;PMS_P1;PMS_P2;Temp;Humidity;BMP_temperature;BMP_pressure;BME280_temperature;BME280_humidity;BME280_pressure;Samples;Min_cycle;Max_cycle;Signal;HPM_P1;HPM_P2
2022/06/12 00:00:46;;;;;;;11.38;6.03;;;;;;;18.84;58.86;100930.75;5087677;28;20056;-90
2022/06/12 00:03:14;;;;;;;9.57;5.75;;;;;;;18.77;59.18;100930.47;5076842;28;20089;-91
2022/06/12 00:05:41;;;;;;;13.52;6.55;;;;;;;18.72;58.91;100929.78;5083335;28;20042;-89
2022/06/12 00:08:08;;;;;;;11.53;6.23;;;;;;;18.64;59.11;100923.91;5088054;28;20040;-75
2022/06/12 00:10:35;;;;;;;11.50;6.10;;;;;;;18.60;59.46;100922.09;5082427;28;20072;-75
2022/06/12 00:13:03;;;;;;;11.38;5.82;;;;;;;18.59;59.55;100918.50;5093816;28;20128;-75
2022/06/12 00:15:30;;;;;;;12.18;6.25;;;;;;;18.59;60.19;100926.03;5083041;28;20121;-75
2022/06/12 00:17:56;;;;;;;7.97;6.45;;;;;;;18.58;60.04;100918.84;5072246;28;20040;-75
2022/06/12 00:20:23;;;;;;;12.32;6.15;;;;;;;18.55;60.25;100916.69;5074982;28;20039;-75
2022/06/12 00:22:50;;;;;;;11.88;6.25;;;;;;;18.53;60.36;100914.25;5092198;28;20509;-75
2022/06/12 00:25:18;;;;;;;11.82;6.65;;;;;;;18.48;60.54;100921.94;5085630;28;20051;-75
2022/06/12 00:27:44;;;;;;;11.23;7.00;;;;;;;18.47;60.96;100917.53;5091999;28;20047;-75
2022/06/12 00:30:17;;;;;;;12.68;6.38;;;;;;;18.47;60.22;100911.97;5092911;28;20486;-75
2022/06/12 00:32:46;;;;;;;11.30;6.93;;;;;;;18.46;60.62;100911.16;5093381;28;20040;-75
2022/06/12 00:35:11;;;;;;;10.65;6.03;;;;;;;18.48;61.17;100908.03;5092584;28;20037;-75
2022/06/12 00:37:37;;;;;;;9.35;5.82;;;;;;;18.54;61.01;100899.19;5090728;28;20501;-75
2022/06/12 00:40:05;;;;;;;10.55;6.43;;;;;;;18.58;61.05;100902.97;5070152;28;20045;-75
2022/06/12 00:42:44;;;;;;;8.93;6.40;;;;;;;18.67;61.18;100897.44;5071787;28;20503;-75
2022/06/12 00:45:37;;;;;;;11.68;6.97;;;;;;;18.68;61.07;100896.28;5073044;28;20048;-74
2022/06/12 00:48:25;;;;;;;10.68;6.35;;;;;;;18.65;61.22;100899.72;5072972;28;20036;-74
2022/06/12 00:51:12;;;;;;;14.93;6.32;;;;;;;18.70;61.05;100904.28;5072936;28;20036;-74
2022/06/12 00:53:43;;;;;;;11.00;6.55;;;;;;;18.82;60.98;100902.47;5054767;28;20040;-75
2022/06/12 00:56:17;;;;;;;8.50;6.18;;;;;;;18.95;60.92;100895.91;5085248;28;20032;-74
2022/06/12 00:58:52;;;;;;;11.23;6.65;;;;;;;19.07;61.18;100897.16;5091175;28;20040;-74
2022/06/12 01:01:25;;;;;;;16.00;7.22;;;;;;;19.07;62.09;100906.31;5070921;28;20592;-75
2022/06/12 01:06:35;;;;;;;12.85;6.80;;;;;;;18.62;64.07;100901.16;5092526;28;20036;-75
2022/06/12 01:09:09;;;;;;;12.75;6.97;;;;;;;18.34;65.03;100911.81;5080117;28;20058;-75
2022/06/12 01:11:35;;;;;;;12.43;7.78;;;;;;;18.23;65.50;100901.34;5072340;28;20173;-75
2022/06/12 01:14:02;;;;;;;15.93;7.93;;;;;;;18.15;65.93;100907.72;5072119;28;20051;-75
2022/06/12 01:16:28;;;;;;;15.85;7.68;;;;;;;18.07;65.85;100910.16;5072308;28;20557;-75
2022/06/12 01:18:55;;;;;;;12.55;7.20;;;;;;;18.01;66.25;100905.88;5070979;28;20090;-75
2022/06/12 01:21:53;;;;;;;13.05;7.97;;;;;;;17.96;66.96;100908.00;5070658;28;20101;-75
2022/06/12 01:24:38;;;;;;;12.88;7.03;;;;;;;17.90;66.86;100903.78;5072131;28;20044;-75
2022/06/12 01:27:23;;;;;;;12.70;7.63;;;;;;;17.90;66.63;100901.81;5072006;28;20055;-75
2022/06/12 01:29:58;;;;;;;10.02;7.15;;;;;;;17.87;66.65;100902.44;5091713;28;20038;-75
2022/06/12 01:32:32;;;;;;;13.23;7.70;;;;;;;17.90;66.43;100904.59;5091423;28;20040;-75
2022/06/12 01:35:20;;;;;;;12.55;7.00;;;;;;;17.92;66.52;100901.47;5091015;28;20043;-75
2022/06/12 01:38:32;;;;;;;15.80;7.55;;;;;;;17.96;66.46;100899.69;5089976;28;20384;-75
2022/06/12 01:41:27;;;;;;;9.77;6.43;;;;;;;18.06;66.09;100900.19;5061877;28;20462;-75
2022/06/12 01:44:02;;;;;;;11.75;7.00;;;;;;;18.05;66.31;100909.69;5071621;28;20074;-74
2022/06/12 01:46:53;;;;;;;10.45;6.95;;;;;;;17.97;66.67;100907.69;5071636;28;20056;-74
2022/06/12 01:49:37;;;;;;;9.90;6.95;;;;;;;17.83;66.61;100895.09;5089905;28;20067;-75
2022/06/12 01:52:28;;;;;;;14.70;8.07;;;;;;;17.76;67.14;100896.38;5090243;28;20422;-74
2022/06/12 01:55:17;;;;;;;15.20;7.95;;;;;;;17.75;67.23;100889.19;5073686;28;20036;-74
2022/06/12 01:58:07;;;;;;;10.57;6.97;;;;;;;17.58;67.51;100891.91;5090199;28;20093;-74
2022/06/12 02:00:33;;;;;;;12.48;7.55;;;;;;;17.61;67.52;100887.66;5089618;28;20081;-74
2022/06/12 02:03:07;;;;;;;13.40;7.25;;;;;;;17.62;67.51;100887.34;5091634;28;20521;-75
2022/06/12 02:05:40;;;;;;;12.98;7.00;;;;;;;17.58;67.27;100883.56;5091530;28;20130;-74
2022/06/12 02:08:26;;;;;;;13.52;7.53;;;;;;;17.61;67.22;100885.69;5090489;28;20043;-74
2022/06/12 02:10:57;;;;;;;14.70;7.07;;;;;;;17.66;66.70;100880.00;5077720;28;20445;-74
2022/06/12 02:13:30;;;;;;;15.38;8.52;;;;;;;17.67;66.66;100887.19;5069946;28;20044;-74
2022/06/12 02:16:16;;;;;;;13.68;7.75;;;;;;;17.77;66.49;100878.59;5069912;28;20455;-74
2022/06/12 02:18:44;;;;;;;11.10;7.43;;;;;;;17.90;66.19;100882.38;5053255;28;20579;-74
2022/06/12 02:21:09;;;;;;;16.88;7.72;;;;;;;17.93;65.88;100881.72;5072221;28;20048;-74
2022/06/12 02:23:50;;;;;;;12.93;7.05;;;;;;;17.99;65.67;100879.59;5083857;28;20498;-75
2022/06/12 02:26:18;;;;;;;12.15;6.95;;;;;;;18.11;65.39;100884.50;5079219;28;20120;-75
2022/06/12 02:28:48;;;;;;;14.05;7.55;;;;;;;18.30;64.47;100894.16;5052592;28;20037;-74
2022/06/12 02:31:21;;;;;;;12.02;7.63;;;;;;;18.36;64.14;100890.06;5085826;28;20081;-75
2022/06/12 02:33:52;;;;;;;14.45;7.32;;;;;;;18.27;64.59;100899.56;5089832;28;20131;-75
2022/06/12 02:36:25;;;;;;;11.45;6.78;;;;;;;18.14;65.44;100895.78;5089753;28;20036;-75
2022/06/12 02:39:00;;;;;;;15.80;7.45;;;;;;;18.14;65.78;100889.41;5084936;28;20628;-75
2022/06/12 02:41:31;;;;;;;11.80;7.25;;;;;;;18.18;65.77;100884.84;5087459;28;20089;-75
2022/06/12 02:43:59;;;;;;;12.93;6.95;;;;;;;18.35;65.26;100884.84;5089763;28;20122;-75
2022/06/12 02:46:31;;;;;;;14.68;7.75;;;;;;;18.56;64.50;100884.97;5070495;28;20044;-75
2022/06/12 02:48:57;;;;;;;15.90;7.18;;;;;;;18.62;63.53;100878.13;5069792;28;20036;-75
2022/06/12 02:51:41;;;;;;;11.32;7.40;;;;;;;18.66;63.49;100874.38;5084999;28;20040;-76
2022/06/12 02:54:31;;;;;;;13.23;6.85;;;;;;;18.70;63.69;100877.31;5091122;28;20044;-75
2022/06/12 02:57:20;;;;;;;15.10;6.97;;;;;;;19.06;62.12;100878.84;5069601;28;20044;-74
2022/06/12 02:59:55;;;;;;;12.23;6.80;;;;;;;19.26;61.35;100876.19;5076191;28;20037;-75
2022/06/12 03:02:30;;;;;;;7.60;5.50;;;;;;;19.46;60.13;100880.16;5074596;28;20055;-74
2022/06/12 03:05:08;;;;;;;9.05;5.60;;;;;;;19.58;59.99;100882.25;5073347;28;20036;-75
2022/06/12 03:07:34;;;;;;;9.23;6.07;;;;;;;19.76;59.59;100871.81;5081632;28;20039;-74
2022/06/12 03:10:05;;;;;;;11.98;6.85;;;;;;;19.83;59.56;100870.16;5068443;28;20040;-74
2022/06/12 03:12:32;;;;;;;10.48;6.45;;;;;;;19.95;59.25;100868.56;5073064;28;20040;-74
2022/06/12 03:14:59;;;;;;;9.18;6.05;;;;;;;20.09;59.07;100874.72;5073339;28;20229;-74
2022/06/12 03:17:25;;;;;;;8.15;5.88;;;;;;;20.12;59.02;100868.44;5073281;28;20654;-75
2022/06/12 03:19:54;;;;;;;7.78;5.93;;;;;;;20.09;58.68;100869.94;5083117;28;20044;-75
2022/06/12 03:22:31;;;;;;;7.50;5.35;;;;;;;20.08;58.99;100868.31;5093527;28;20048;-74
2022/06/12 03:25:09;;;;;;;8.10;5.35;;;;;;;20.22;59.15;100868.06;5091677;28;20044;-73
2022/06/12 03:27:37;;;;;;;6.93;5.18;;;;;;;20.57;58.29;100870.56;5089165;28;20490;-73
2022/06/12 03:30:11;;;;;;;9.13;5.47;;;;;;;20.67;57.75;100873.75;5089979;28;20042;-73
2022/06/12 03:33:02;;;;;;;7.38;5.68;;;;;;;20.79;57.82;100864.56;5096961;28;20035;-74
2022/06/12 03:35:55;;;;;;;10.02;5.07;;;;;;;20.94;57.26;100868.69;5072418;28;20434;-74
2022/06/12 03:38:36;;;;;;;5.70;4.78;;;;;;;21.11;55.30;100879.66;5072857;28;20048;-74
2022/06/12 03:41:39;;;;;;;6.55;3.85;;;;;;;21.21;54.51;100879.22;5072889;28;20513;-74
2022/06/12 03:44:18;;;;;;;6.60;4.05;;;;;;;21.27;54.17;100875.06;5089576;28;20044;-74
2022/06/12 03:46:48;;;;;;;5.22;4.05;;;;;;;21.44;53.52;100862.03;5092086;28;20032;-74
2022/06/12 03:49:17;;;;;;;4.57;3.88;;;;;;;21.50;52.44;100871.78;5056978;28;20047;-74
2022/06/12 03:52:12;;;;;;;5.45;3.92;;;;;;;21.52;51.83;100866.66;5078886;28;20036;-74
2022/06/12 03:57:50;;;;;;;11.90;3.95;;;;;;;21.22;52.19;100866.88;5091845;28;20047;-74
2022/06/12 03:58:17;;;;;;;5.53;3.85;;;;;;;21.03;52.84;100866.63;5071962;28;20049;-74
2022/06/12 04:00:45;;;;;;;5.55;3.78;;;;;;;21.09;52.34;100870.81;5073549;28;20084;-74
2022/06/12 04:03:21;;;;;;;7.03;4.65;;;;;;;21.21;53.71;100868.03;5071684;28;20548;-74
2022/06/12 04:05:51;;;;;;;6.88;4.25;;;;;;;21.11;54.37;100870.47;5087335;28;20478;-74
2022/06/12 04:08:23;;;;;;;9.23;4.63;;;;;;;21.02;54.76;100865.81;5085820;28;20067;-74
2022/06/12 04:10:50;;;;;;;7.28;4.10;;;;;;;20.92;55.63;100862.63;5075038;28;20032;-74
2022/06/12 04:13:18;;;;;;;5.60;4.22;;;;;;;20.94;55.36;100865.91;5076966;28;20407;-74
2022/06/12 04:15:45;;;;;;;7.65;4.25;;;;;;;20.95;55.61;100859.16;5072460;28;20044;-74
2022/06/12 04:18:12;;;;;;;6.65;4.50;;;;;;;21.02;55.52;100865.00;5074304;28;20135;-74
2022/06/12 04:20:37;;;;;;;5.93;4.80;;;;;;;21.04;55.30;100859.88;5073349;28;20045;-74
2022/06/12 04:23:15;;;;;;;5.25;4.22;;;;;;;21.10;55.11;100860.47;5086641;28;20135;-73
2022/06/12 04:25:49;;;;;;;6.03;4.37;;;;;;;20.96;55.90;100863.56;5092937;28;20036;-74
2022/06/12 04:28:42;;;;;;;7.15;4.45;;;;;;;20.94;55.61;100861.13;5093190;28;20694;-74
2022/06/12 04:31:27;;;;;;;6.07;4.47;;;;;;;21.04;55.53;100862.66;5090357;28;20534;-74
2022/06/12 04:34:18;;;;;;;7.60;5.15;;;;;;;21.01;56.15;100864.19;5072073;28;20067;-74
2022/06/12 04:36:47;;;;;;;7.75;4.68;;;;;;;21.04;56.62;100859.88;5084068;28;20032;-74
2022/06/12 04:39:15;;;;;;;7.57;4.85;;;;;;;21.04;56.23;100859.88;5075544;28;20044;-74
2022/06/12 04:41:41;;;;;;;5.60;4.97;;;;;;;20.95;56.12;100854.38;5074079;28;20410;-74
2022/06/12 04:44:08;;;;;;;7.85;4.93;;;;;;;20.81;57.46;100850.28;5073142;28;20036;-74
2022/06/12 04:46:36;;;;;;;7.95;5.60;;;;;;;20.65;57.38;100853.75;5072762;28;20070;-75
2022/06/12 04:49:02;;;;;;;7.28;5.07;;;;;;;20.64;57.61;100854.06;5054926;28;20108;-74
2022/06/12 04:51:28;;;;;;;4.80;4.25;;;;;;;20.69;56.81;100853.88;5072861;28;20036;-75
2022/06/12 04:53:55;;;;;;;6.10;4.80;;;;;;;20.74;56.87;100856.44;5072853;28;20051;-75
2022/06/12 04:56:22;;;;;;;6.25;4.18;;;;;;;20.80;55.55;100863.41;5087446;28;20418;-75
2022/06/12 04:58:48;;;;;;;5.22;4.00;;;;;;;20.89;55.69;100846.59;5091286;28;20490;-74
2022/06/12 05:01:14;;;;;;;5.95;3.60;;;;;;;20.76;55.00;100854.13;5070924;28;20114;-74
2022/06/12 05:03:40;;;;;;;4.80;4.00;;;;;;;20.63;55.21;100856.03;5092455;28;20036;-74
2022/06/12 05:06:07;;;;;;;4.47;4.07;;;;;;;20.55;55.42;100853.34;5090981;28;20036;-75
2022/06/12 05:08:33;;;;;;;4.90;3.75;;;;;;;20.59;55.53;100859.88;5083498;28;20127;-74
2022/06/12 05:11:00;;;;;;;5.22;4.13;;;;;;;20.55;56.17;100856.97;5111925;28;20036;-74
2022/06/12 05:13:25;;;;;;;5.95;4.22;;;;;;;20.52;56.32;100860.44;5112890;28;20449;-75
2022/06/12 05:15:51;;;;;;;4.40;3.85;;;;;;;20.49;56.50;100855.56;5084542;28;20049;-75
2022/06/12 05:18:18;;;;;;;6.50;4.60;;;;;;;20.54;56.63;100869.28;5082354;28;20059;-75
2022/06/12 05:20:45;;;;;;;5.15;3.58;;;;;;;20.53;56.40;100855.69;5074123;28;20043;-75
2022/06/12 05:23:10;;;;;;;4.70;4.10;;;;;;;20.62;56.42;100859.19;5069988;28;20040;-75
2022/06/12 05:25:37;;;;;;;5.25;3.75;;;;;;;21.01;56.17;100863.38;5081113;28;20399;-75
2022/06/12 05:28:03;;;;;;;6.47;3.67;;;;;;;21.43;54.64;100858.41;5084230;28;20040;-75
2022/06/12 05:30:31;;;;;;;4.00;3.53;;;;;;;21.95;53.41;100866.84;5073156;28;20074;-75
2022/06/12 05:32:59;;;;;;;5.78;3.40;;;;;;;22.21;52.09;100862.84;5070886;28;20036;-75
2022/06/12 05:35:26;;;;;;;3.95;3.17;;;;;;;22.58;50.79;100846.75;5070502;28;20105;-75
2022/06/12 05:37:52;;;;;;;3.75;3.33;;;;;;;23.05;49.70;100852.44;5071397;28;20068;-75
2022/06/12 05:40:24;;;;;;;3.65;3.13;;;;;;;23.39;48.46;100848.09;5071567;28;20036;-75
2022/06/12 05:42:50;;;;;;;3.65;3.13;;;;;;;23.83;48.25;100863.97;5071862;28;20037;-75
2022/06/12 05:45:19;;;;;;;3.90;3.50;;;;;;;23.96;49.00;100862.69;5070349;28;20438;-75
2022/06/12 05:47:49;;;;;;;4.32;3.50;;;;;;;24.03;49.17;100854.41;5073158;28;20052;-75
2022/06/12 05:50:16;;;;;;;4.28;3.67;;;;;;;24.21;49.11;100852.81;5088129;28;20036;-75
2022/06/12 05:52:41;;;;;;;4.25;3.70;;;;;;;24.20;49.10;100850.38;5085948;28;20044;-75
2022/06/12 05:55:08;;;;;;;5.15;3.85;;;;;;;24.13;49.08;100853.03;5074625;28;20090;-75
2022/06/12 05:57:33;;;;;;;4.82;4.38;;;;;;;23.95;49.44;100859.06;5090753;28;20055;-75
2022/06/12 05:59:59;;;;;;;4.88;4.07;;;;;;;23.73;50.33;100849.34;5070970;28;20057;-76
2022/06/12 06:02:24;;;;;;;4.80;4.18;;;;;;;23.97;50.26;100850.28;5070252;28;20087;-73
2022/06/12 06:04:50;;;;;;;6.60;5.10;;;;;;;24.14;49.05;100854.66;5070375;28;20044;-75
2022/06/12 06:07:16;;;;;;;5.47;4.93;;;;;;;24.57;49.13;100857.16;5077236;28;20040;-75
2022/06/12 06:09:41;;;;;;;5.18;4.57;;;;;;;24.77;48.51;100854.34;5080619;28;20635;-76
2022/06/12 06:12:08;;;;;;;5.00;4.50;;;;;;;24.91;48.95;100855.41;5071212;28;20048;-75
2022/06/12 06:14:33;;;;;;;4.80;3.88;;;;;;;25.19;47.10;100845.91;5071224;28;20490;-75
2022/06/12 06:16:59;;;;;;;4.20;3.53;;;;;;;25.27;46.74;100849.63;5071292;28;20051;-75
2022/06/12 06:19:25;;;;;;;3.47;3.17;;;;;;;25.49;45.96;100849.59;5072194;28;20380;-75
2022/06/12 06:21:51;;;;;;;3.45;3.15;;;;;;;25.68;45.26;100845.09;5070979;28;20047;-75
2022/06/12 06:24:18;;;;;;;3.90;2.88;;;;;;;25.79;44.48;100846.06;5075033;28;20039;-75
2022/06/12 06:26:43;;;;;;;2.95;2.75;;;;;;;25.83;44.83;100844.09;5070210;28;20045;-75
2022/06/12 06:29:09;;;;;;;2.88;2.63;;;;;;;25.81;44.69;100838.06;5082692;28;20450;-75
2022/06/12 06:31:35;;;;;;;2.85;2.65;;;;;;;25.65;45.25;100838.19;5090439;28;20040;-75
2022/06/12 06:34:02;;;;;;;2.90;2.60;;;;;;;25.40;44.61;100839.81;5077806;28;20075;-74
2022/06/12 06:36:28;;;;;;;2.85;2.30;;;;;;;25.30;45.41;100841.25;5070892;28;20032;-75
2022/06/12 06:38:55;;;;;;;2.55;2.17;;;;;;;25.32;45.38;100838.88;5070295;28;20044;-75
2022/06/12 06:41:20;;;;;;;;;;;;;;;25.32;44.41;100832.47;5091396;28;20100;-75
2022/06/12 06:46:31;;;;;;;2.20;1.83;;;;;;;25.16;45.33;100836.22;5090786;28;20051;-74
2022/06/12 06:48:56;;;;;;;2.88;2.30;;;;;;;25.12;45.23;100834.53;5089214;28;20044;-75
2022/06/12 06:51:23;;;;;;;3.50;2.13;;;;;;;24.95;46.69;100835.81;5072196;28;20119;-74
2022/06/12 06:53:49;;;;;;;2.33;2.08;;;;;;;25.05;45.90;100826.00;5083989;28;20100;-74
2022/06/12 06:56:15;;;;;;;2.42;2.22;;;;;;;25.22;45.78;100840.34;5075282;28;20044;-74
2022/06/12 06:58:41;;;;;;;2.70;2.50;;;;;;;25.33;45.63;100834.06;5074329;28;20475;-74
2022/06/12 07:01:07;;;;;;;2.83;2.53;;;;;;;25.49;45.62;100826.31;5073064;28;20056;-74
2022/06/12 07:03:33;;;;;;;3.40;2.38;;;;;;;25.58;45.98;100828.88;5090829;28;20047;-74
2022/06/12 07:05:59;;;;;;;2.97;2.78;;;;;;;25.84;46.22;100828.84;5090919;28;20032;-75
2022/06/12 07:08:27;;;;;;;2.77;2.50;;;;;;;25.92;46.48;100826.97;5078118;28;20077;-74
2022/06/12 07:10:54;;;;;;;2.90;2.53;;;;;;;25.95;46.07;100824.19;5052684;28;20040;-74
2022/06/12 07:13:20;;;;;;;2.75;2.53;;;;;;;25.78;46.86;100822.78;5070620;28;20032;-74
2022/06/12 07:15:46;;;;;;;2.80;2.40;;;;;;;25.40;47.04;100826.59;5070493;28;20036;-75
2022/06/12 07:18:12;;;;;;;3.88;3.53;;;;;;;25.25;47.50;100830.34;5070903;28;20074;-74
2022/06/12 07:20:46;;;;;;;2.10;1.98;;;;;;;25.17;47.57;100820.19;5070664;28;20059;-74
2022/06/12 07:23:14;;;;;;;1.88;1.75;;;;;;;25.00;48.74;100826.31;5074513;28;20044;-74
2022/06/12 07:25:43;;;;;;;2.90;1.65;;;;;;;24.53;49.70;100822.63;5080457;28;20065;-74
2022/06/12 07:28:10;;;;;;;2.58;1.50;;;;;;;24.37;50.13;100821.91;5082908;28;20075;-74
2022/06/12 07:30:37;;;;;;;2.05;1.65;;;;;;;24.17;50.12;100829.47;5069273;28;20033;-75
2022/06/12 07:33:04;;;;;;;2.80;1.55;;;;;;;24.05;50.31;100829.63;5070656;28;20127;-74
2022/06/12 07:35:30;;;;;;;2.42;1.55;;;;;;;23.74;50.74;100834.16;5076634;28;20041;-74
2022/06/12 07:37:56;;;;;;;2.22;1.48;;;;;;;23.58;51.06;100836.16;5069339;28;20169;-74
2022/06/12 07:40:25;;;;;;;3.95;1.70;;;;;;;23.39;50.10;100833.28;5080648;28;20197;-74
2022/06/12 07:42:51;;;;;;;1.35;1.23;;;;;;;23.19;50.50;100839.97;5089367;28;20039;-74
2022/06/12 07:45:17;;;;;;;2.78;1.30;;;;;;;23.06;49.67;100836.47;5089633;28;20044;-74
2022/06/12 07:47:43;;;;;;;1.15;1.05;;;;;;;23.17;49.36;100841.16;5093881;28;20456;-74
2022/06/12 07:50:09;;;;;;;1.05;1.00;;;;;;;23.02;49.21;100847.56;5074735;28;20044;-75
2022/06/12 07:52:37;;;;;;;1.50;1.23;;;;;;;22.68;49.14;100842.63;5072599;28;20039;-74
2022/06/12 07:55:03;;;;;;;1.70;1.35;;;;;;;22.42;49.92;100838.31;5081206;28;20132;-73
2022/06/12 07:57:29;;;;;;;4.95;1.77;;;;;;;22.25;51.40;100842.25;5093765;28;20036;-73
2022/06/12 07:59:55;;;;;;;1.67;1.58;;;;;;;22.11;51.52;100839.03;5093615;28;20047;-74
2022/06/12 08:02:21;;;;;;;1.55;1.45;;;;;;;22.16;52.42;100843.53;5094119;28;20044;-74
2022/06/12 08:04:46;;;;;;;1.77;1.65;;;;;;;22.10;54.09;100834.59;5078696;28;20068;-74
2022/06/12 08:07:12;;;;;;;4.72;1.85;;;;;;;22.21;53.41;100829.31;5072184;28;20137;-75
2022/06/12 08:09:38;;;;;;;1.70;1.60;;;;;;;22.13;53.69;100839.47;5073594;28;20491;-74
2022/06/12 08:12:04;;;;;;;3.03;1.95;;;;;;;22.00;55.11;100835.06;5073349;28;20042;-74
2022/06/12 08:14:30;;;;;;;2.58;1.77;;;;;;;21.70;55.46;100842.94;5073859;28;20044;-74
2022/06/12 08:16:56;;;;;;;2.65;2.33;;;;;;;21.44;56.35;100842.50;5072311;28;20045;-74
2022/06/12 08:22:07;;;;;;;4.13;2.22;;;;;;;21.18;57.50;100842.81;5089343;28;20071;-74
2022/06/12 08:24:33;;;;;;;4.40;2.38;;;;;;;21.05;58.02;100839.19;5091368;28;20078;-75
2022/06/12 08:26:58;;;;;;;2.20;2.00;;;;;;;21.02;58.29;100831.50;5073050;28;20097;-74
2022/06/12 08:29:24;;;;;;;2.17;1.95;;;;;;;20.91;58.17;100839.50;5073455;28;20039;-74
2022/06/12 08:31:54;;;;;;;3.72;2.28;;;;;;;20.76;59.01;100843.78;5055342;28;20067;-74
2022/06/12 08:34:31;;;;;;;2.28;1.90;;;;;;;20.63;59.73;100835.72;5086135;28;20039;-75
2022/06/12 08:36:59;;;;;;;3.75;2.00;;;;;;;20.61;60.67;100826.88;5092032;28;20184;-74
2022/06/12 08:39:25;;;;;;;2.20;1.60;;;;;;;20.57;61.18;100834.31;5093265;28;20037;-75
2022/06/12 08:42:13;;;;;;;4.68;2.25;;;;;;;20.50;61.17;100834.06;5075383;28;20500;-75
2022/06/12 08:44:55;;;;;;;2.03;1.75;;;;;;;20.38;60.96;100840.38;5076972;28;20049;-75
2022/06/12 08:47:31;;;;;;;3.55;2.00;;;;;;;20.37;60.61;100835.97;5082724;28;20047;-75
2022/06/12 08:50:21;;;;;;;3.70;2.15;;;;;;;20.63;60.56;100836.53;5091819;28;20036;-75
2022/06/12 08:52:55;;;;;;;1.92;1.77;;;;;;;20.91;59.76;100833.13;5074624;28;20040;-74
2022/06/12 08:55:29;;;;;;;4.13;1.77;;;;;;;21.13;57.86;100826.28;5078716;28;20024;-74
2022/06/12 08:58:05;;;;;;;2.65;1.58;;;;;;;21.09;57.71;100817.78;5090524;28;20036;-74
2022/06/12 09:00:35;;;;;;;2.80;1.50;;;;;;;21.11;57.67;100823.84;5086923;28;20108;-75
2022/06/12 09:03:03;;;;;;;2.78;1.40;;;;;;;21.34;56.77;100819.44;5078659;28;20036;-75
2022/06/12 09:05:37;;;;;;;1.85;1.40;;;;;;;21.58;55.38;100817.81;5089084;28;20032;-75
2022/06/12 09:08:14;;;;;;;2.60;1.17;;;;;;;21.86;54.48;100817.84;5087134;28;20040;-75
2022/06/12 09:10:44;;;;;;;1.42;1.25;;;;;;;21.79;54.08;100818.47;5084674;28;20062;-75
2022/06/12 09:13:26;;;;;;;3.20;1.27;;;;;;;21.76;54.22;100810.78;5086546;28;20131;-74
2022/06/12 09:16:17;;;;;;;2.55;1.40;;;;;;;22.19;53.45;100810.09;5084697;28;20054;-74
2022/06/12 09:19:02;;;;;;;3.22;1.00;;;;;;;22.55;52.56;100809.09;5090876;28;20028;-74
2022/06/12 09:21:41;;;;;;;2.47;1.42;;;;;;;22.62;51.94;100799.31;5091640;28;20050;-74
2022/06/12 09:24:31;;;;;;;1.33;1.13;;;;;;;22.85;51.17;100797.53;5086995;28;20119;-74
2022/06/12 09:27:03;;;;;;;2.20;1.25;;;;;;;22.97;50.46;100800.25;5090223;28;20047;-74
2022/06/12 09:29:50;;;;;;;2.92;1.33;;;;;;;22.90;50.27;100793.66;5090064;28;20032;-73
2022/06/12 09:32:27;;;;;;;3.22;1.70;;;;;;;22.70;50.57;100792.72;5090886;28;20043;-74
2022/06/12 09:35:15;;;;;;;2.15;1.30;;;;;;;22.47;50.23;100784.94;5086566;28;20032;-74
2022/06/12 09:40:34;;;;;;;1.98;1.33;;;;;;;22.25;50.84;100788.31;5087527;28;20353;-75
2022/06/12 09:43:09;;;;;;;1.75;1.30;;;;;;;22.33;50.84;100781.75;5085961;28;20579;-75
2022/06/12 09:45:35;;;;;;;3.60;1.75;;;;;;;22.23;49.67;100771.09;5092494;28;20039;-74
2022/06/12 09:48:30;;;;;;;2.45;1.10;;;;;;;22.16;49.79;100768.06;5092783;28;20131;-74
2022/06/12 09:51:20;;;;;;;2.85;1.27;;;;;;;22.18;50.31;100772.13;5086386;28;20052;-76
2022/06/12 09:54:27;;;;;;;2.30;1.40;;;;;;;22.19;50.07;100767.34;5097344;28;20060;-75
2022/06/12 09:57:02;;;;;;;2.22;1.42;;;;;;;22.28;49.47;100770.81;5080956;28;20046;-75
2022/06/12 09:59:52;;;;;;;2.70;1.77;;;;;;;22.27;50.00;100769.19;5083797;28;20035;-75
2022/06/12 10:02:35;;;;;;;3.55;1.42;;;;;;;22.23;50.67;100768.28;5079675;28;20143;-76
2022/06/12 10:05:03;;;;;;;2.47;1.70;;;;;;;22.26;50.77;100760.00;5091882;28;20600;-75
2022/06/12 10:07:38;;;;;;;3.42;1.55;;;;;;;22.26;50.65;100764.78;5080481;28;20548;-75
2022/06/12 10:10:09;;;;;;;3.03;1.50;;;;;;;22.22;50.82;100763.88;5069477;28;20040;-75
2022/06/12 10:12:39;;;;;;;2.45;1.55;;;;;;;22.28;51.48;100756.84;5072024;28;20101;-75
2022/06/12 10:15:12;;;;;;;3.40;1.98;;;;;;;22.26;50.22;100751.63;5079065;28;20039;-75
2022/06/12 10:17:46;;;;;;;1.83;1.60;;;;;;;22.17;50.17;100750.94;5071038;28;20037;-75
2022/06/12 10:20:19;;;;;;;1.42;1.33;;;;;;;22.12;49.81;100758.78;5070157;28;20471;-75
2022/06/12 10:22:48;;;;;;;3.33;1.60;;;;;;;22.14;49.66;100748.06;5072771;28;20093;-75
2022/06/12 10:25:34;;;;;;;2.40;1.35;;;;;;;22.08;50.00;100747.50;5069020;28;20456;-75
2022/06/12 10:28:04;;;;;;;3.78;1.50;;;;;;;22.12;49.29;100742.81;5073710;28;20044;-76
2022/06/12 10:30:33;;;;;;;2.53;1.55;;;;;;;22.03;49.29;100752.50;5090272;28;20060;-76
2022/06/12 10:33:08;;;;;;;4.30;2.20;;;;;;;22.01;50.48;100738.88;5089531;28;20036;-76
2022/06/12 10:35:46;;;;;;;3.33;1.73;;;;;;;22.08;50.54;100746.69;5080204;28;20036;-76
2022/06/12 10:38:11;;;;;;;4.32;2.03;;;;;;;22.16;50.54;100749.31;5080960;28;20418;-75
2022/06/12 10:40:37;;;;;;;3.45;1.70;;;;;;;22.07;50.91;100745.06;5075731;28;20040;-75
2022/06/12 10:43:05;;;;;;;3.47;1.92;;;;;;;22.01;51.31;100732.47;5081858;28;20059;-75
2022/06/12 10:45:39;;;;;;;2.72;1.73;;;;;;;22.04;51.93;100734.56;5082993;28;20063;-75
2022/06/12 10:48:23;;;;;;;2.42;1.98;;;;;;;22.12;51.92;100728.84;5072458;28;20086;-74
2022/06/12 10:50:53;;;;;;;3.58;2.13;;;;;;;22.17;50.95;100734.19;5075676;28;20098;-74
2022/06/12 10:53:22;;;;;;;3.47;2.20;;;;;;;22.18;51.26;100730.22;5088332;28;20036;-75
2022/06/12 10:56:00;;;;;;;6.32;2.75;;;;;;;22.19;51.88;100725.44;5093131;28;20040;-75
2022/06/12 10:58:29;;;;;;;2.50;2.25;;;;;;;22.15;51.53;100730.94;5071637;28;20414;-75
2022/06/12 11:00:55;;;;;;;;;;;;;;;22.11;52.32;100727.22;5079846;28;20052;-74
2022/06/12 11:03:20;;;;;;;3.83;1.88;;;;;;;22.22;51.53;100721.94;5089493;28;19977;-75
2022/06/12 11:05:53;;;;;;;4.57;2.00;;;;;;;22.27;51.74;100721.66;5090757;28;20043;-75
2022/06/12 11:08:18;;;;;;;3.05;1.63;;;;;;;22.25;51.33;100721.22;5091142;28;20058;-75
2022/06/12 11:10:53;;;;;;;2.42;2.05;;;;;;;22.19;51.40;100722.63;5087153;28;20052;-75
2022/06/12 11:13:44;;;;;;;3.20;2.05;;;;;;;22.00;51.60;100723.28;5088908;28;20039;-75
2022/06/12 11:16:48;;;;;;;5.18;2.50;;;;;;;21.74;52.24;100720.16;5069378;28;20094;-76
2022/06/12 11:19:52;;;;;;;4.97;1.90;;;;;;;21.50;52.71;100716.25;5062466;28;20130;-76
2022/06/12 11:22:29;;;;;;;3.55;1.98;;;;;;;21.37;53.19;100714.66;5088519;28;20044;-75
2022/06/12 11:25:26;;;;;;;3.42;2.00;;;;;;;21.21;52.98;100716.53;5094805;28;20044;-76
2022/06/12 11:28:10;;;;;;;3.80;1.80;;;;;;;21.11;53.05;100715.00;5075006;28;20095;-75
2022/06/12 11:30:47;;;;;;;5.55;1.85;;;;;;;21.01;53.72;100709.91;5086211;28;20453;-76
2022/06/12 11:33:33;;;;;;;5.28;2.00;;;;;;;21.01;53.98;100701.56;5084066;28;20044;-77
2022/06/12 11:36:09;;;;;;;4.93;2.00;;;;;;;21.13;53.46;100703.50;5092886;28;20051;-75
2022/06/12 11:38:50;;;;;;;2.72;2.28;;;;;;;21.17;52.84;100698.84;5078073;28;20040;-75
2022/06/12 11:41:43;;;;;;;2.55;1.90;;;;;;;21.13;52.25;100701.50;5094518;28;20039;-75
2022/06/12 11:44:26;;;;;;;3.38;1.80;;;;;;;21.14;51.73;100696.75;5095255;28;20130;-76
2022/06/12 11:46:56;;;;;;;3.00;1.75;;;;;;;21.10;52.09;100691.06;5113100;28;20127;-75
2022/06/12 11:49:33;;;;;;;4.90;2.05;;;;;;;21.26;52.04;100688.41;5102679;28;20036;-75
2022/06/12 11:52:20;;;;;;;3.85;2.13;;;;;;;21.35;51.67;100681.53;5089786;28;20042;-75
2022/06/12 11:55:08;;;;;;;2.42;1.85;;;;;;;21.35;51.85;100675.13;5084507;28;20040;-74
2022/06/12 11:57:43;;;;;;;5.93;2.17;;;;;;;21.31;51.90;100676.97;5080292;28;20040;-73
2022/06/12 12:00:12;;;;;;;3.95;2.17;;;;;;;21.35;51.29;100669.53;5080703;28;20083;-75
2022/06/12 12:02:56;;;;;;;4.00;2.03;;;;;;;21.44;51.06;100672.19;5089081;28;20419;-73